sensor_id;sensor_type;location;lat;lon;timestamp;P1;durP1;ratioP1;P2;durP2;ratioP2
43529;SDS011;55654;50.966;6.878;2023-02-22T00:00:09;292.07;;;53.67;;
43529;SDS011;55654;50.966;6.878;2023-02-22T00:02:43;367.13;;;52.87;;
43529;SDS011;55654;50.966;6.878;2023-02-22T00:05:09;384.53;;;56.30;;
43529;SDS011;55654;50.966;6.878;2023-02-22T00:07:35;195.00;;;42.87;;
43529;SDS011;55654;50.966;6.878;2023-02-22T00:10:01;197.93;;;44.80;;
43529;SDS011;55654;50.966;6.878;2023-02-22T00:12:27;277.30;;;45.73;;
43529;SDS011;55654;50.966;6.878;2023-02-22T00:14:55;249.27;;;48.03;;
43529;SDS011;55654;50.966;6.878;2023-02-22T00:17:21;184.23;;;46.70;;
43529;SDS011;55654;50.966;6.878;2023-02-22T00:19:50;150.77;;;45.43;;
43529;SDS011;55654;50.966;6.878;2023-02-22T00:22:19;145.20;;;44.13;;
43529;SDS011;55654;50.966;6.878;2023-02-22T00:24:47;184.30;;;46.43;;
43529;SDS011;55654;50.966;6.878;2023-02-22T00:27:14;200.90;;;45.60;;
43529;SDS011;55654;50.966;6.878;2023-02-22T00:29:44;347.07;;;51.47;;
43529;SDS011;55654;50.966;6.878;2023-02-22T00:32:10;260.07;;;47.17;;
43529;SDS011;55654;50.966;6.878;2023-02-22T00:34:36;361.20;;;50.33;;
43529;SDS011;55654;50.966;6.878;2023-02-22T00:37:02;349.43;;;52.17;;
43529;SDS011;55654;50.966;6.878;2023-02-22T00:39:29;159.20;;;44.07;;
43529;SDS011;55654;50.966;6.878;2023-02-22T00:41:55;356.73;;;52.67;;
43529;SDS011;55654;50.966;6.878;2023-02-22T00:44:21;413.03;;;53.00;;
43529;SDS011;55654;50.966;6.878;2023-02-22T00:46:47;569.80;;;69.73;;
43529;SDS011;55654;50.966;6.878;2023-02-22T00:49:14;469.03;;;60.13;;
43529;SDS011;55654;50.966;6.878;2023-02-22T00:51:40;376.53;;;56.43;;
43529;SDS011;55654;50.966;6.878;2023-02-22T00:54:06;235.70;;;50.63;;
43529;SDS011;55654;50.966;6.878;2023-02-22T00:56:33;192.93;;;46.30;;
43529;SDS011;55654;50.966;6.878;2023-02-22T00:59:01;194.30;;;43.50;;
43529;SDS011;55654;50.966;6.878;2023-02-22T01:01:27;187.70;;;42.23;;
43529;SDS011;55654;50.966;6.878;2023-02-22T01:03:53;194.67;;;41.13;;
43529;SDS011;55654;50.966;6.878;2023-02-22T01:06:19;292.93;;;45.53;;
43529;SDS011;55654;50.966;6.878;2023-02-22T01:08:47;124.07;;;35.43;;
43529;SDS011;55654;50.966;6.878;2023-02-22T01:11:14;139.43;;;36.33;;
43529;SDS011;55654;50.966;6.878;2023-02-22T01:13:41;173.07;;;37.67;;
43529;SDS011;55654;50.966;6.878;2023-02-22T01:16:09;119.33;;;37.97;;
43529;SDS011;55654;50.966;6.878;2023-02-22T01:18:35;182.63;;;36.93;;
43529;SDS011;55654;50.966;6.878;2023-02-22T01:21:02;193.37;;;40.63;;
43529;SDS011;55654;50.966;6.878;2023-02-22T01:23:34;239.13;;;40.47;;
43529;SDS011;55654;50.966;6.878;2023-02-22T01:26:00;261.03;;;46.83;;
43529;SDS011;55654;50.966;6.878;2023-02-22T01:28:28;356.77;;;50.07;;
43529;SDS011;55654;50.966;6.878;2023-02-22T01:30:54;118.23;;;35.13;;
43529;SDS011;55654;50.966;6.878;2023-02-22T01:33:20;133.87;;;34.20;;
43529;SDS011;55654;50.966;6.878;2023-02-22T01:35:46;156.47;;;38.83;;
43529;SDS011;55654;50.966;6.878;2023-02-22T01:38:14;171.33;;;37.20;;
43529;SDS011;55654;50.966;6.878;2023-02-22T01:40:40;126.70;;;38.40;;
43529;SDS011;55654;50.966;6.878;2023-02-22T01:43:15;139.83;;;37.83;;
43529;SDS011;55654;50.966;6.878;2023-02-22T01:48:17;242.80;;;44.70;;
43529;SDS011;55654;50.966;6.878;2023-02-22T01:50:53;167.67;;;42.67;;
43529;SDS011;55654;50.966;6.878;2023-02-22T01:53:24;224.27;;;44.57;;
43529;SDS011;55654;50.966;6.878;2023-02-22T01:55:51;264.93;;;45.97;;
43529;SDS011;55654;50.966;6.878;2023-02-22T01:58:18;180.60;;;40.97;;
43529;SDS011;55654;50.966;6.878;2023-02-22T02:00:44;220.40;;;45.00;;
43529;SDS011;55654;50.966;6.878;2023-02-22T02:03:13;180.47;;;42.13;;
43529;SDS011;55654;50.966;6.878;2023-02-22T02:05:41;279.30;;;51.73;;
43529;SDS011;55654;50.966;6.878;2023-02-22T02:08:15;398.33;;;53.87;;
43529;SDS011;55654;50.966;6.878;2023-02-22T02:10:41;248.43;;;48.00;;
43529;SDS011;55654;50.966;6.878;2023-02-22T02:13:11;248.43;;;49.40;;
43529;SDS011;55654;50.966;6.878;2023-02-22T02:15:37;269.57;;;50.43;;
43529;SDS011;55654;50.966;6.878;2023-02-22T02:18:06;294.17;;;52.47;;
43529;SDS011;55654;50.966;6.878;2023-02-22T02:34:17;183.80;;;46.27;;
43529;SDS011;55654;50.966;6.878;2023-02-22T02:36:18;225.23;;;46.70;;
43529;SDS011;55654;50.966;6.878;2023-02-22T02:38:54;330.10;;;52.40;;
43529;SDS011;55654;50.966;6.878;2023-02-22T02:43:56;164.90;;;45.77;;
43529;SDS011;55654;50.966;6.878;2023-02-22T02:46:25;236.50;;;47.07;;
43529;SDS011;55654;50.966;6.878;2023-02-22T02:48:56;220.53;;;47.90;;
43529;SDS011;55654;50.966;6.878;2023-02-22T02:51:23;166.40;;;43.03;;
43529;SDS011;55654;50.966;6.878;2023-02-22T02:53:52;182.73;;;46.90;;
43529;SDS011;55654;50.966;6.878;2023-02-22T02:56:21;162.37;;;46.13;;
43529;SDS011;55654;50.966;6.878;2023-02-22T02:58:51;242.77;;;49.00;;
43529;SDS011;55654;50.966;6.878;2023-02-22T03:01:19;224.37;;;44.53;;
43529;SDS011;55654;50.966;6.878;2023-02-22T03:03:59;243.00;;;46.33;;
43529;SDS011;55654;50.966;6.878;2023-02-22T03:11:50;290.27;;;51.33;;
43529;SDS011;55654;50.966;6.878;2023-02-22T03:14:26;257.30;;;46.80;;
43529;SDS011;55654;50.966;6.878;2023-02-22T03:29:29;180.38;;;44.83;;
43529;SDS011;55654;50.966;6.878;2023-02-22T03:31:59;150.57;;;43.37;;
43529;SDS011;55654;50.966;6.878;2023-02-22T03:34:28;153.97;;;44.97;;
43529;SDS011;55654;50.966;6.878;2023-02-22T03:36:57;188.43;;;44.93;;
43529;SDS011;55654;50.966;6.878;2023-02-22T03:39:26;263.10;;;47.40;;
43529;SDS011;55654;50.966;6.878;2023-02-22T03:42:05;153.60;;;43.60;;
43529;SDS011;55654;50.966;6.878;2023-02-22T03:44:33;223.63;;;46.13;;
43529;SDS011;55654;50.966;6.878;2023-02-22T03:47:03;141.13;;;40.10;;
43529;SDS011;55654;50.966;6.878;2023-02-22T03:49:32;199.77;;;46.53;;
43529;SDS011;55654;50.966;6.878;2023-02-22T03:52:28;178.13;;;44.10;;
43529;SDS011;55654;50.966;6.878;2023-02-22T03:54:54;220.17;;;48.17;;
43529;SDS011;55654;50.966;6.878;2023-02-22T03:57:27;183.43;;;46.03;;
43529;SDS011;55654;50.966;6.878;2023-02-22T04:02:56;124.27;;;43.83;;
43529;SDS011;55654;50.966;6.878;2023-02-22T04:05:28;172.23;;;44.22;;
43529;SDS011;55654;50.966;6.878;2023-02-22T04:07:55;159.53;;;43.37;;
43529;SDS011;55654;50.966;6.878;2023-02-22T04:10:22;161.27;;;41.37;;
43529;SDS011;55654;50.966;6.878;2023-02-22T04:12:48;136.60;;;42.73;;
43529;SDS011;55654;50.966;6.878;2023-02-22T04:15:16;127.47;;;42.13;;
43529;SDS011;55654;50.966;6.878;2023-02-22T04:17:42;311.37;;;51.27;;
43529;SDS011;55654;50.966;6.878;2023-02-22T04:20:08;128.90;;;43.33;;
43529;SDS011;55654;50.966;6.878;2023-02-22T04:22:37;155.53;;;43.83;;
43529;SDS011;55654;50.966;6.878;2023-02-22T04:25:03;143.23;;;45.40;;
43529;SDS011;55654;50.966;6.878;2023-02-22T04:27:29;141.33;;;45.10;;
43529;SDS011;55654;50.966;6.878;2023-02-22T04:29:55;153.37;;;45.47;;
43529;SDS011;55654;50.966;6.878;2023-02-22T04:32:21;124.50;;;43.77;;
43529;SDS011;55654;50.966;6.878;2023-02-22T04:34:47;114.50;;;41.90;;
43529;SDS011;55654;50.966;6.878;2023-02-22T04:37:13;112.63;;;39.07;;
43529;SDS011;55654;50.966;6.878;2023-02-22T04:39:39;118.47;;;39.70;;
43529;SDS011;55654;50.966;6.878;2023-02-22T04:42:05;120.73;;;40.77;;
43529;SDS011;55654;50.966;6.878;2023-02-22T04:44:33;112.23;;;39.70;;
43529;SDS011;55654;50.966;6.878;2023-02-22T04:46:59;119.67;;;40.80;;
43529;SDS011;55654;50.966;6.878;2023-02-22T04:49:27;108.97;;;39.43;;
43529;SDS011;55654;50.966;6.878;2023-02-22T04:51:53;108.33;;;41.43;;
43529;SDS011;55654;50.966;6.878;2023-02-22T04:54:19;96.03;;;41.70;;
43529;SDS011;55654;50.966;6.878;2023-02-22T04:56:45;117.77;;;41.57;;
43529;SDS011;55654;50.966;6.878;2023-02-22T04:59:11;106.83;;;39.30;;
43529;SDS011;55654;50.966;6.878;2023-02-22T05:01:37;107.53;;;40.67;;
43529;SDS011;55654;50.966;6.878;2023-02-22T05:04:04;93.37;;;38.27;;
43529;SDS011;55654;50.966;6.878;2023-02-22T05:06:30;94.07;;;42.57;;
43529;SDS011;55654;50.966;6.878;2023-02-22T05:08:56;92.27;;;38.30;;
43529;SDS011;55654;50.966;6.878;2023-02-22T05:11:22;93.93;;;39.30;;
43529;SDS011;55654;50.966;6.878;2023-02-22T05:13:48;84.47;;;36.50;;
43529;SDS011;55654;50.966;6.878;2023-02-22T05:16:15;86.77;;;36.83;;
43529;SDS011;55654;50.966;6.878;2023-02-22T05:18:41;86.10;;;37.27;;
43529;SDS011;55654;50.966;6.878;2023-02-22T05:21:09;85.30;;;37.93;;
43529;SDS011;55654;50.966;6.878;2023-02-22T05:23:35;86.77;;;36.60;;
43529;SDS011;55654;50.966;6.878;2023-02-22T05:26:03;88.47;;;37.57;;
43529;SDS011;55654;50.966;6.878;2023-02-22T05:28:30;91.53;;;37.33;;
43529;SDS011;55654;50.966;6.878;2023-02-22T05:30:59;91.87;;;37.53;;
43529;SDS011;55654;50.966;6.878;2023-02-22T05:33:27;86.83;;;37.03;;
43529;SDS011;55654;50.966;6.878;2023-02-22T05:35:56;92.37;;;37.77;;
43529;SDS011;55654;50.966;6.878;2023-02-22T05:38:21;88.17;;;37.50;;
43529;SDS011;55654;50.966;6.878;2023-02-22T05:40:48;95.20;;;38.70;;
43529;SDS011;55654;50.966;6.878;2023-02-22T05:43:16;85.67;;;36.57;;
43529;SDS011;55654;50.966;6.878;2023-02-22T05:45:42;77.53;;;34.57;;
43529;SDS011;55654;50.966;6.878;2023-02-22T05:48:13;72.43;;;32.10;;
43529;SDS011;55654;50.966;6.878;2023-02-22T05:50:39;70.63;;;32.77;;
43529;SDS011;55654;50.966;6.878;2023-02-22T05:53:05;74.40;;;33.37;;
43529;SDS011;55654;50.966;6.878;2023-02-22T05:55:31;77.60;;;34.60;;
43529;SDS011;55654;50.966;6.878;2023-02-22T05:57:57;77.30;;;32.20;;
43529;SDS011;55654;50.966;6.878;2023-02-22T06:00:26;87.63;;;34.27;;
43529;SDS011;55654;50.966;6.878;2023-02-22T06:02:59;90.43;;;36.85;;
43529;SDS011;55654;50.966;6.878;2023-02-22T06:05:28;88.55;;;35.92;;
43529;SDS011;55654;50.966;6.878;2023-02-22T06:07:54;94.67;;;35.77;;
43529;SDS011;55654;50.966;6.878;2023-02-22T06:10:21;87.10;;;35.00;;
43529;SDS011;55654;50.966;6.878;2023-02-22T06:12:48;89.23;;;34.80;;
43529;SDS011;55654;50.966;6.878;2023-02-22T06:15:14;90.33;;;35.90;;
43529;SDS011;55654;50.966;6.878;2023-02-22T06:17:41;84.93;;;35.30;;
43529;SDS011;55654;50.966;6.878;2023-02-22T06:20:08;78.00;;;33.57;;
43529;SDS011;55654;50.966;6.878;2023-02-22T06:22:34;93.40;;;36.03;;
43529;SDS011;55654;50.966;6.878;2023-02-22T06:25:03;90.70;;;35.70;;
43529;SDS011;55654;50.966;6.878;2023-02-22T06:27:30;91.43;;;34.13;;
43529;SDS011;55654;50.966;6.878;2023-02-22T06:29:56;90.87;;;33.43;;
43529;SDS011;55654;50.966;6.878;2023-02-22T06:32:22;83.17;;;32.53;;
43529;SDS011;55654;50.966;6.878;2023-02-22T06:34:48;91.87;;;34.57;;
43529;SDS011;55654;50.966;6.878;2023-02-22T06:37:14;95.40;;;38.77;;
43529;SDS011;55654;50.966;6.878;2023-02-22T06:39:40;90.20;;;37.93;;
43529;SDS011;55654;50.966;6.878;2023-02-22T06:42:06;90.23;;;36.47;;
43529;SDS011;55654;50.966;6.878;2023-02-22T06:44:32;91.80;;;35.27;;
43529;SDS011;55654;50.966;6.878;2023-02-22T06:46:58;89.83;;;34.33;;
43529;SDS011;55654;50.966;6.878;2023-02-22T06:49:25;93.60;;;37.90;;
43529;SDS011;55654;50.966;6.878;2023-02-22T06:51:51;83.03;;;34.77;;
43529;SDS011;55654;50.966;6.878;2023-02-22T06:54:17;94.47;;;37.50;;
43529;SDS011;55654;50.966;6.878;2023-02-22T06:56:43;90.83;;;36.13;;
43529;SDS011;55654;50.966;6.878;2023-02-22T06:59:09;89.43;;;36.87;;
43529;SDS011;55654;50.966;6.878;2023-02-22T07:01:36;86.37;;;34.63;;
43529;SDS011;55654;50.966;6.878;2023-02-22T07:04:02;79.50;;;32.83;;
43529;SDS011;55654;50.966;6.878;2023-02-22T07:06:29;82.70;;;32.30;;
43529;SDS011;55654;50.966;6.878;2023-02-22T07:08:55;78.80;;;34.17;;
43529;SDS011;55654;50.966;6.878;2023-02-22T07:11:23;80.17;;;34.47;;
43529;SDS011;55654;50.966;6.878;2023-02-22T07:13:49;82.70;;;33.33;;
43529;SDS011;55654;50.966;6.878;2023-02-22T07:16:15;88.60;;;33.53;;
43529;SDS011;55654;50.966;6.878;2023-02-22T07:18:41;75.90;;;32.87;;
43529;SDS011;55654;50.966;6.878;2023-02-22T07:21:07;73.37;;;32.90;;
43529;SDS011;55654;50.966;6.878;2023-02-22T07:23:33;68.27;;;31.17;;
43529;SDS011;55654;50.966;6.878;2023-02-22T07:26:02;72.37;;;32.90;;
43529;SDS011;55654;50.966;6.878;2023-02-22T07:28:29;65.30;;;30.27;;
43529;SDS011;55654;50.966;6.878;2023-02-22T07:30:55;63.93;;;30.90;;
43529;SDS011;55654;50.966;6.878;2023-02-22T07:33:21;60.10;;;29.43;;
43529;SDS011;55654;50.966;6.878;2023-02-22T07:35:50;56.77;;;28.33;;
43529;SDS011;55654;50.966;6.878;2023-02-22T07:38:17;62.37;;;31.23;;
43529;SDS011;55654;50.966;6.878;2023-02-22T07:40:46;57.90;;;28.87;;
43529;SDS011;55654;50.966;6.878;2023-02-22T07:43:14;58.83;;;28.30;;
43529;SDS011;55654;50.966;6.878;2023-02-22T07:45:40;47.97;;;25.60;;
43529;SDS011;55654;50.966;6.878;2023-02-22T07:48:06;53.77;;;26.87;;
43529;SDS011;55654;50.966;6.878;2023-02-22T07:50:33;50.47;;;25.93;;
43529;SDS011;55654;50.966;6.878;2023-02-22T07:53:00;45.40;;;24.33;;
43529;SDS011;55654;50.966;6.878;2023-02-22T07:55:27;40.23;;;23.13;;
43529;SDS011;55654;50.966;6.878;2023-02-22T07:57:55;45.20;;;24.47;;
43529;SDS011;55654;50.966;6.878;2023-02-22T08:00:23;48.77;;;24.27;;
43529;SDS011;55654;50.966;6.878;2023-02-22T08:02:49;39.47;;;21.43;;
43529;SDS011;55654;50.966;6.878;2023-02-22T08:05:15;37.00;;;21.00;;
43529;SDS011;55654;50.966;6.878;2023-02-22T08:07:41;36.20;;;20.30;;
43529;SDS011;55654;50.966;6.878;2023-02-22T08:10:09;39.27;;;20.07;;
43529;SDS011;55654;50.966;6.878;2023-02-22T08:12:38;34.93;;;20.03;;
43529;SDS011;55654;50.966;6.878;2023-02-22T08:15:05;35.93;;;20.83;;
43529;SDS011;55654;50.966;6.878;2023-02-22T08:17:31;36.47;;;20.33;;
43529;SDS011;55654;50.966;6.878;2023-02-22T08:19:57;34.50;;;19.30;;
43529;SDS011;55654;50.966;6.878;2023-02-22T08:22:23;33.30;;;18.83;;
43529;SDS011;55654;50.966;6.878;2023-02-22T08:24:51;34.93;;;18.73;;
43529;SDS011;55654;50.966;6.878;2023-02-22T08:27:22;35.63;;;18.20;;
43529;SDS011;55654;50.966;6.878;2023-02-22T08:29:49;36.47;;;17.97;;
43529;SDS011;55654;50.966;6.878;2023-02-22T08:32:17;36.63;;;18.50;;
43529;SDS011;55654;50.966;6.878;2023-02-22T08:34:43;33.20;;;18.80;;
43529;SDS011;55654;50.966;6.878;2023-02-22T08:37:09;33.73;;;19.07;;
43529;SDS011;55654;50.966;6.878;2023-02-22T08:39:35;30.90;;;17.83;;
43529;SDS011;55654;50.966;6.878;2023-02-22T08:42:01;34.43;;;19.97;;
43529;SDS011;55654;50.966;6.878;2023-02-22T08:44:27;32.93;;;17.60;;
43529;SDS011;55654;50.966;6.878;2023-02-22T08:46:53;27.17;;;16.93;;
43529;SDS011;55654;50.966;6.878;2023-02-22T08:49:20;30.93;;;18.47;;
43529;SDS011;55654;50.966;6.878;2023-02-22T08:51:46;33.90;;;18.03;;
43529;SDS011;55654;50.966;6.878;2023-02-22T08:54:12;30.13;;;17.23;;
43529;SDS011;55654;50.966;6.878;2023-02-22T08:56:38;26.43;;;16.47;;
43529;SDS011;55654;50.966;6.878;2023-02-22T08:59:04;24.90;;;17.30;;
43529;SDS011;55654;50.966;6.878;2023-02-22T09:01:32;24.90;;;15.80;;
43529;SDS011;55654;50.966;6.878;2023-02-22T09:03:58;30.00;;;17.00;;
43529;SDS011;55654;50.966;6.878;2023-02-22T09:06:25;30.53;;;17.50;;
43529;SDS011;55654;50.966;6.878;2023-02-22T09:08:51;30.20;;;17.17;;
43529;SDS011;55654;50.966;6.878;2023-02-22T09:11:17;31.57;;;17.13;;
43529;SDS011;55654;50.966;6.878;2023-02-22T09:13:43;30.13;;;16.03;;
43529;SDS011;55654;50.966;6.878;2023-02-22T09:16:09;35.57;;;17.93;;
43529;SDS011;55654;50.966;6.878;2023-02-22T09:18:35;28.00;;;17.97;;
43529;SDS011;55654;50.966;6.878;2023-02-22T09:21:02;30.27;;;17.37;;
43529;SDS011;55654;50.966;6.878;2023-02-22T09:23:29;25.63;;;16.60;;
43529;SDS011;55654;50.966;6.878;2023-02-22T09:25:55;25.47;;;16.43;;
43529;SDS011;55654;50.966;6.878;2023-02-22T09:28:23;24.53;;;14.67;;
43529;SDS011;55654;50.966;6.878;2023-02-22T09:30:49;29.00;;;16.57;;
43529;SDS011;55654;50.966;6.878;2023-02-22T09:33:15;28.33;;;15.73;;
43529;SDS011;55654;50.966;6.878;2023-02-22T09:35:42;32.70;;;16.70;;
43529;SDS011;55654;50.966;6.878;2023-02-22T09:38:13;28.43;;;16.70;;
43529;SDS011;55654;50.966;6.878;2023-02-22T09:40:40;28.93;;;17.33;;
43529;SDS011;55654;50.966;6.878;2023-02-22T09:48:05;26.53;;;17.30;;
43529;SDS011;55654;50.966;6.878;2023-02-22T09:50:37;31.50;;;18.67;;
43529;SDS011;55654;50.966;6.878;2023-02-22T09:53:19;34.07;;;15.80;;
43529;SDS011;55654;50.966;6.878;2023-02-22T09:55:53;30.50;;;17.27;;
43529;SDS011;55654;50.966;6.878;2023-02-22T09:58:23;26.10;;;15.67;;
43529;SDS011;55654;50.966;6.878;2023-02-22T10:00:50;34.90;;;17.70;;
43529;SDS011;55654;50.966;6.878;2023-02-22T10:05:46;30.23;;;16.90;;
43529;SDS011;55654;50.966;6.878;2023-02-22T10:08:14;25.40;;;15.87;;
43529;SDS011;55654;50.966;6.878;2023-02-22T10:10:43;25.63;;;16.67;;
43529;SDS011;55654;50.966;6.878;2023-02-22T10:26:17;29.87;;;16.50;;
43529;SDS011;55654;50.966;6.878;2023-02-22T10:29:02;32.43;;;16.57;;
43529;SDS011;55654;50.966;6.878;2023-02-22T10:31:30;26.27;;;14.90;;
43529;SDS011;55654;50.966;6.878;2023-02-22T10:33:59;23.57;;;15.23;;
43529;SDS011;55654;50.966;6.878;2023-02-22T10:36:28;27.70;;;14.13;;
43529;SDS011;55654;50.966;6.878;2023-02-22T10:38:58;23.30;;;14.80;;
43529;SDS011;55654;50.966;6.878;2023-02-22T10:41:31;27.03;;;15.60;;
43529;SDS011;55654;50.966;6.878;2023-02-22T10:43:57;22.00;;;14.13;;
43529;SDS011;55654;50.966;6.878;2023-02-22T10:46:26;25.33;;;15.03;;
43529;SDS011;55654;50.966;6.878;2023-02-22T10:48:56;27.93;;;15.57;;
43529;SDS011;55654;50.966;6.878;2023-02-22T10:51:26;27.90;;;15.30;;
43529;SDS011;55654;50.966;6.878;2023-02-22T10:53:58;23.10;;;14.50;;
43529;SDS011;55654;50.966;6.878;2023-02-22T10:56:36;25.42;;;14.23;;
43529;SDS011;55654;50.966;6.878;2023-02-22T10:59:11;26.53;;;13.73;;
43529;SDS011;55654;50.966;6.878;2023-02-22T11:01:51;27.57;;;17.13;;
43529;SDS011;55654;50.966;6.878;2023-02-22T11:04:20;23.97;;;14.33;;
43529;SDS011;55654;50.966;6.878;2023-02-22T11:06:48;21.47;;;13.30;;
43529;SDS011;55654;50.966;6.878;2023-02-22T11:09:18;24.00;;;13.20;;
43529;SDS011;55654;50.966;6.878;2023-02-22T11:11:48;21.87;;;13.67;;
43529;SDS011;55654;50.966;6.878;2023-02-22T11:14:28;26.00;;;13.63;;
43529;SDS011;55654;50.966;6.878;2023-02-22T11:16:55;21.37;;;12.47;;
43529;SDS011;55654;50.966;6.878;2023-02-22T11:19:23;17.33;;;11.53;;
43529;SDS011;55654;50.966;6.878;2023-02-22T11:21:51;18.07;;;12.10;;
43529;SDS011;55654;50.966;6.878;2023-02-22T11:24:18;27.53;;;14.03;;
43529;SDS011;55654;50.966;6.878;2023-02-22T11:26:48;21.30;;;12.90;;
43529;SDS011;55654;50.966;6.878;2023-02-22T11:29:19;22.53;;;12.70;;
43529;SDS011;55654;50.966;6.878;2023-02-22T11:31:45;19.87;;;12.17;;
43529;SDS011;55654;50.966;6.878;2023-02-22T11:34:55;20.60;;;11.98;;
43529;SDS011;55654;50.966;6.878;2023-02-22T11:37:22;20.40;;;11.53;;
43529;SDS011;55654;50.966;6.878;2023-02-22T11:40:13;18.47;;;11.20;;
43529;SDS011;55654;50.966;6.878;2023-02-22T11:42:43;18.37;;;11.47;;
43529;SDS011;55654;50.966;6.878;2023-02-22T11:45:11;18.08;;;11.68;;
43529;SDS011;55654;50.966;6.878;2023-02-22T11:57:59;16.90;;;10.25;;
43529;SDS011;55654;50.966;6.878;2023-02-22T12:00:38;18.75;;;10.27;;
43529;SDS011;55654;50.966;6.878;2023-02-22T12:15:38;17.02;;;9.27;;
43529;SDS011;55654;50.966;6.878;2023-02-22T12:25:40;16.33;;;8.23;;
43529;SDS011;55654;50.966;6.878;2023-02-22T12:30:36;11.85;;;7.93;;
43529;SDS011;55654;50.966;6.878;2023-02-22T12:33:05;11.65;;;7.05;;
43529;SDS011;55654;50.966;6.878;2023-02-22T12:35:34;12.70;;;7.88;;
43529;SDS011;55654;50.966;6.878;2023-02-22T12:40:32;15.65;;;7.40;;
43529;SDS011;55654;50.966;6.878;2023-02-22T12:45:46;11.27;;;7.05;;
43529;SDS011;55654;50.966;6.878;2023-02-22T12:51:02;12.52;;;7.22;;
43529;SDS011;55654;50.966;6.878;2023-02-22T12:53:35;12.57;;;7.45;;
43529;SDS011;55654;50.966;6.878;2023-02-22T12:58:54;11.57;;;7.20;;
43529;SDS011;55654;50.966;6.878;2023-02-22T13:01:32;11.05;;;6.85;;
43529;SDS011;55654;50.966;6.878;2023-02-22T13:03:59;16.85;;;8.02;;
43529;SDS011;55654;50.966;6.878;2023-02-22T13:16:51;14.05;;;8.00;;
43529;SDS011;55654;50.966;6.878;2023-02-22T13:22:53;13.43;;;7.60;;
43529;SDS011;55654;50.966;6.878;2023-02-22T13:25:32;16.92;;;7.10;;
43529;SDS011;55654;50.966;6.878;2023-02-22T13:27:40;10.82;;;7.53;;
43529;SDS011;55654;50.966;6.878;2023-02-22T13:30:19;15.05;;;7.90;;
43529;SDS011;55654;50.966;6.878;2023-02-22T13:35:40;12.20;;;7.53;;
43529;SDS011;55654;50.966;6.878;2023-02-22T13:41:09;10.07;;;5.70;;
43529;SDS011;55654;50.966;6.878;2023-02-22T13:46:16;12.70;;;6.10;;
43529;SDS011;55654;50.966;6.878;2023-02-22T13:53:57;14.00;;;6.00;;
43529;SDS011;55654;50.966;6.878;2023-02-22T13:56:27;14.68;;;6.22;;
43529;SDS011;55654;50.966;6.878;2023-02-22T13:58:56;13.20;;;6.88;;
43529;SDS011;55654;50.966;6.878;2023-02-22T14:01:44;10.15;;;5.85;;
43529;SDS011;55654;50.966;6.878;2023-02-22T14:06:45;18.13;;;6.82;;
43529;SDS011;55654;50.966;6.878;2023-02-22T14:09:14;12.45;;;7.68;;
43529;SDS011;55654;50.966;6.878;2023-02-22T14:11:46;15.23;;;7.35;;
43529;SDS011;55654;50.966;6.878;2023-02-22T14:14:16;11.80;;;7.22;;
43529;SDS011;55654;50.966;6.878;2023-02-22T14:16:43;15.48;;;7.03;;
43529;SDS011;55654;50.966;6.878;2023-02-22T14:21:37;12.52;;;6.88;;
43529;SDS011;55654;50.966;6.878;2023-02-22T14:24:19;11.20;;;7.07;;
43529;SDS011;55654;50.966;6.878;2023-02-22T14:26:53;12.48;;;6.97;;
43529;SDS011;55654;50.966;6.878;2023-02-22T14:29:19;10.23;;;6.43;;
43529;SDS011;55654;50.966;6.878;2023-02-22T14:34:14;13.35;;;7.18;;
43529;SDS011;55654;50.966;6.878;2023-02-22T14:37:03;15.57;;;7.38;;
43529;SDS011;55654;50.966;6.878;2023-02-22T14:44:36;14.35;;;8.70;;
43529;SDS011;55654;50.966;6.878;2023-02-22T14:47:05;16.08;;;7.35;;
43529;SDS011;55654;50.966;6.878;2023-02-22T14:49:34;14.57;;;6.97;;
43529;SDS011;55654;50.966;6.878;2023-02-22T14:52:04;15.80;;;7.68;;
43529;SDS011;55654;50.966;6.878;2023-02-22T14:54:36;14.93;;;8.02;;
43529;SDS011;55654;50.966;6.878;2023-02-22T14:57:10;11.43;;;7.53;;
43529;SDS011;55654;50.966;6.878;2023-02-22T15:00:05;10.55;;;6.88;;
43529;SDS011;55654;50.966;6.878;2023-02-22T15:02:24;11.05;;;7.10;;
43529;SDS011;55654;50.966;6.878;2023-02-22T15:04:54;16.17;;;8.48;;
43529;SDS011;55654;50.966;6.878;2023-02-22T15:09:46;15.30;;;7.40;;
43529;SDS011;55654;50.966;6.878;2023-02-22T15:12:15;15.27;;;7.45;;
43529;SDS011;55654;50.966;6.878;2023-02-22T15:14:45;13.60;;;7.75;;
43529;SDS011;55654;50.966;6.878;2023-02-22T15:17:18;14.20;;;7.35;;
43529;SDS011;55654;50.966;6.878;2023-02-22T15:19:45;12.15;;;7.35;;
43529;SDS011;55654;50.966;6.878;2023-02-22T15:22:25;21.20;;;7.88;;
43529;SDS011;55654;50.966;6.878;2023-02-22T15:24:58;17.60;;;8.13;;
43529;SDS011;55654;50.966;6.878;2023-02-22T15:27:25;16.73;;;8.00;;
43529;SDS011;55654;50.966;6.878;2023-02-22T15:29:56;13.20;;;8.43;;
43529;SDS011;55654;50.966;6.878;2023-02-22T15:34:52;11.25;;;7.50;;
43529;SDS011;55654;50.966;6.878;2023-02-22T15:37:21;15.98;;;7.43;;
43529;SDS011;55654;50.966;6.878;2023-02-22T15:39:49;16.13;;;7.60;;
43529;SDS011;55654;50.966;6.878;2023-02-22T15:42:23;10.93;;;6.75;;
43529;SDS011;55654;50.966;6.878;2023-02-22T15:44:50;13.65;;;7.80;;
43529;SDS011;55654;50.966;6.878;2023-02-22T15:47:24;16.15;;;7.30;;
43529;SDS011;55654;50.966;6.878;2023-02-22T15:52:58;15.93;;;7.63;;
43529;SDS011;55654;50.966;6.878;2023-02-22T15:55:34;12.82;;;6.95;;
43529;SDS011;55654;50.966;6.878;2023-02-22T16:00:34;13.25;;;6.82;;
43529;SDS011;55654;50.966;6.878;2023-02-22T16:03:04;16.20;;;7.15;;
43529;SDS011;55654;50.966;6.878;2023-02-22T16:05:35;13.35;;;6.97;;
43529;SDS011;55654;50.966;6.878;2023-02-22T16:08:02;12.98;;;6.93;;
43529;SDS011;55654;50.966;6.878;2023-02-22T16:10:31;12.65;;;6.65;;
43529;SDS011;55654;50.966;6.878;2023-02-22T16:13:08;13.73;;;7.43;;
43529;SDS011;55654;50.966;6.878;2023-02-22T16:15:35;13.10;;;7.38;;
43529;SDS011;55654;50.966;6.878;2023-02-22T16:18:43;13.13;;;6.97;;
43529;SDS011;55654;50.966;6.878;2023-02-22T16:20:57;10.63;;;6.80;;
43529;SDS011;55654;50.966;6.878;2023-02-22T16:23:24;11.65;;;7.28;;
43529;SDS011;55654;50.966;6.878;2023-02-22T16:26:00;14.88;;;7.45;;
43529;SDS011;55654;50.966;6.878;2023-02-22T16:28:27;12.60;;;7.28;;
43529;SDS011;55654;50.966;6.878;2023-02-22T16:31:00;15.35;;;7.40;;
43529;SDS011;55654;50.966;6.878;2023-02-22T16:33:26;14.88;;;7.25;;
43529;SDS011;55654;50.966;6.878;2023-02-22T16:36:01;15.38;;;6.90;;
43529;SDS011;55654;50.966;6.878;2023-02-22T16:38:29;17.73;;;9.18;;
43529;SDS011;55654;50.966;6.878;2023-02-22T16:40:57;16.92;;;10.25;;
43529;SDS011;55654;50.966;6.878;2023-02-22T16:43:25;18.95;;;9.70;;
43529;SDS011;55654;50.966;6.878;2023-02-22T16:45:53;16.23;;;9.05;;
43529;SDS011;55654;50.966;6.878;2023-02-22T16:48:20;19.57;;;10.30;;
43529;SDS011;55654;50.966;6.878;2023-02-22T16:50:47;14.77;;;9.93;;
43529;SDS011;55654;50.966;6.878;2023-02-22T16:53:15;13.60;;;9.33;;
43529;SDS011;55654;50.966;6.878;2023-02-22T16:55:44;13.43;;;9.00;;
43529;SDS011;55654;50.966;6.878;2023-02-22T16:58:10;13.90;;;9.13;;
43529;SDS011;55654;50.966;6.878;2023-02-22T17:00:37;17.93;;;9.50;;
43529;SDS011;55654;50.966;6.878;2023-02-22T17:03:03;18.53;;;10.13;;